Time;durP1;ratioP1;P1;durP2;ratioP2;P2;SDS_P1;SDS_P2;PMS_P1;PMS_P2;Temp;Humidity;BMP_temperature;BMP_pressure;BME280_temperature;BME280_humidity;BME280_pressure;Samples;Min_cycle;Max_cycle;Signal;HPM_P1;HPM_P2
2021/08/25 00:00:52;;;;;;;9.20;5.10;;;;;;;10.62;68.80;100811.23;137462;1201;110995;-74
2021/08/25 00:03:57;;;;;;;8.70;4.90;;;;;;;10.60;69.32;100809.10;137528;1200;97663;-74
2021/08/25 00:07:03;;;;;;;8.00;4.60;;;;;;;10.57;68.90;100809.15;137513;1196;96348;-73
2021/08/25 00:10:09;;;;;;;13.50;5.30;;;;;;;10.56;68.87;100806.55;137481;1202;109670;-74
2021/08/25 00:13:15;;;;;;;9.20;4.80;;;;;;;10.56;68.99;100807.66;137536;1201;99142;-73
2021/08/25 00:16:20;;;;;;;12.20;5.10;;;;;;;10.56;68.91;100807.53;137483;1201;111371;-73
2021/08/25 00:19:26;;;;;;;11.30;5.20;;;;;;;10.54;68.85;100802.83;137504;1201;97666;-75
2021/08/25 00:22:31;;;;;;;10.70;5.20;;;;;;;10.55;69.03;100800.51;137584;1195;98346;-74
2021/08/25 00:25:37;;;;;;;11.70;5.10;;;;;;;10.52;69.14;100793.98;137515;1201;109021;-75
2021/08/25 00:28:42;;;;;;;9.50;5.00;;;;;;;10.47;69.10;100792.63;137518;1202;97692;-73
2021/08/25 00:31:48;;;;;;;9.30;5.10;;;;;;;10.44;69.09;100792.77;137494;1202;112266;-73
2021/08/25 00:34:53;;;;;;;10.00;5.70;;;;;;;10.38;68.90;100787.42;137511;1202;97685;-72
2021/08/25 00:37:59;;;;;;;11.10;5.30;;;;;;;10.30;68.87;100786.92;137493;1201;97725;-72
2021/08/25 00:41:04;;;;;;;10.40;4.70;;;;;;;10.27;68.92;100783.89;137511;1201;108502;-75
2021/08/25 00:44:09;;;;;;;10.00;5.60;;;;;;;10.28;69.11;100780.53;137502;1201;97680;-71
2021/08/25 00:47:16;;;;;;;9.70;5.50;;;;;;;10.22;69.30;100777.21;137465;1201;112154;-73
2021/08/25 00:50:22;;;;;;;9.50;5.90;;;;;;;10.21;69.10;100772.91;137563;1193;97800;-75
2021/08/25 00:53:27;;;;;;;10.60;5.40;;;;;;;10.20;69.28;100773.14;137515;1201;97645;-75
2021/08/25 00:56:34;;;;;;;9.30;5.00;;;;;;;10.18;69.15;100776.33;137537;1201;108520;-75
2021/08/25 00:59:40;;;;;;;8.90;5.20;;;;;;;10.15;69.11;100769.70;137480;1202;97824;-73
2021/08/25 01:02:51;;;;;;;9.90;5.00;;;;;;;10.12;69.05;100768.58;137479;1201;112108;-74
2021/08/25 01:05:59;;;;;;;9.20;5.30;;;;;;;10.10;69.08;100767.11;137560;1201;97791;-73
2021/08/25 01:09:05;;;;;;;11.10;5.60;;;;;;;10.07;69.46;100767.59;137572;1201;98714;-74
2021/08/25 01:12:11;;;;;;;10.40;5.10;;;;;;;9.98;69.26;100769.11;137500;1201;108551;-72
2021/08/25 01:15:17;;;;;;;10.50;5.00;;;;;;;9.91;69.30;100767.55;137485;1202;98573;-72
2021/08/25 01:18:23;;;;;;;13.30;5.80;;;;;;;9.87;69.85;100767.21;137498;1201;112189;-72
2021/08/25 01:21:29;;;;;;;12.00;5.90;;;;;;;9.90;69.63;100763.23;137511;1201;97771;-73
2021/08/25 01:24:36;;;;;;;8.50;5.30;;;;;;;9.91;69.57;100764.42;137488;1202;98567;-74
2021/08/25 01:27:45;;;;;;;12.10;6.00;;;;;;;9.91;69.63;100762.27;137553;1201;108427;-72
2021/08/25 01:30:53;;;;;;;9.60;5.20;;;;;;;9.91;69.51;100764.59;137489;1202;98622;-73
2021/08/25 01:34:07;;;;;;;10.10;5.30;;;;;;;9.90;69.46;100765.75;137504;1201;112128;-73
2021/08/25 01:37:12;;;;;;;12.60;4.70;;;;;;;9.85;69.11;100764.55;137559;1201;97684;-74
2021/08/25 01:40:18;;;;;;;10.00;5.20;;;;;;;9.78;69.22;100760.92;137533;1202;98586;-75
2021/08/25 01:43:23;;;;;;;9.10;5.30;;;;;;;9.70;69.18;100761.23;137511;1201;108369;-72
2021/08/25 01:46:31;;;;;;;8.60;5.10;;;;;;;9.62;69.09;100761.20;137501;1195;97737;-72
2021/08/25 01:49:37;;;;;;;8.80;4.50;;;;;;;9.53;69.07;100760.27;137537;1201;112305;-71
2021/08/25 01:52:42;;;;;;;9.50;4.60;;;;;;;9.48;69.14;100761.21;137510;1201;97721;-75
2021/08/25 01:55:48;;;;;;;9.20;5.40;;;;;;;9.43;69.07;100757.02;137517;1201;98604;-76
2021/08/25 01:58:54;;;;;;;9.20;5.40;;;;;;;9.41;68.93;100759.33;137486;1195;108467;-75
2021/08/25 02:01:59;;;;;;;8.30;5.00;;;;;;;9.37;69.04;100753.80;137515;1201;99031;-75
2021/08/25 02:05:05;;;;;;;8.40;4.70;;;;;;;9.36;69.08;100752.11;137519;1201;111852;-72
2021/08/25 02:08:12;;;;;;;8.80;5.00;;;;;;;9.34;68.67;100751.42;137527;1202;98126;-72
2021/08/25 02:11:17;;;;;;;9.10;5.00;;;;;;;9.31;68.76;100743.73;137530;1201;97690;-73
2021/08/25 02:14:23;;;;;;;8.20;4.60;;;;;;;9.25;68.85;100738.01;137534;1201;108555;-73
2021/08/25 02:17:28;;;;;;;8.60;4.60;;;;;;;9.19;68.86;100734.94;137540;1201;97666;-71
2021/08/25 02:20:34;;;;;;;9.70;4.80;;;;;;;9.14;68.88;100727.29;137525;1201;112085;-71
2021/08/25 02:23:40;;;;;;;9.40;5.00;;;;;;;9.07;68.95;100726.94;137518;1201;97676;-72
2021/08/25 02:26:45;;;;;;;8.00;4.20;;;;;;;9.02;68.78;100725.45;137513;1201;97722;-72
2021/08/25 02:29:55;;;;;;;9.30;4.80;;;;;;;8.97;68.89;100725.98;137466;1201;108607;-72
2021/08/25 02:33:01;;;;;;;8.40;4.60;;;;;;;8.90;68.78;100720.73;137603;1201;99002;-73
2021/08/25 02:36:07;;;;;;;8.50;4.10;;;;;;;8.87;69.15;100724.54;137559;1201;112257;-73
2021/08/25 02:39:13;;;;;;;8.80;4.90;;;;;;;8.87;69.10;100724.57;137536;1202;97657;-71
2021/08/25 02:42:18;;;;;;;9.40;4.60;;;;;;;8.82;69.08;100723.04;137620;1201;97725;-73
2021/08/25 02:45:24;;;;;;;11.50;4.80;;;;;;;8.82;69.33;100721.64;137522;1201;108645;-72
2021/08/25 02:48:30;;;;;;;9.60;4.80;;;;;;;8.83;69.26;100720.63;137557;1201;98603;-72
2021/08/25 02:51:35;;;;;;;9.70;5.10;;;;;;;8.81;69.37;100720.48;137498;1201;112608;-75
2021/08/25 02:54:41;;;;;;;9.30;4.60;;;;;;;8.76;69.44;100719.65;137676;1201;97765;-72
2021/08/25 02:57:46;;;;;;;8.60;4.70;;;;;;;8.76;69.57;100722.32;137529;1195;99000;-73
2021/08/25 03:00:52;;;;;;;8.10;4.90;;;;;;;8.74;69.63;100714.52;137580;1201;108411;-72
2021/08/25 03:03:57;;;;;;;8.20;4.80;;;;;;;8.71;69.66;100713.89;137505;1201;97792;-72
2021/08/25 03:07:03;;;;;;;9.70;4.60;;;;;;;8.65;69.68;100707.79;137433;1193;112285;-72
2021/08/25 03:10:10;;;;;;;9.60;4.70;;;;;;;8.61;70.04;100703.84;137605;1201;97694;-76
2021/08/25 03:13:15;;;;;;;8.10;4.70;;;;;;;8.65;70.32;100698.61;137554;1201;97683;-72
2021/08/25 03:16:21;;;;;;;9.40;4.80;;;;;;;8.70;70.22;100697.27;137520;1201;108561;-72
2021/08/25 03:19:26;;;;;;;8.60;4.70;;;;;;;8.74;70.49;100693.06;137669;1201;97689;-74
2021/08/25 03:22:32;;;;;;;7.90;4.70;;;;;;;8.75;70.53;100688.54;137551;1200;111974;-71
2021/08/25 03:25:37;;;;;;;10.60;5.50;;;;;;;8.76;70.56;100687.90;137633;1201;99126;-73
2021/08/25 03:28:43;;;;;;;8.50;5.10;;;;;;;8.76;70.50;100685.06;137614;1193;97703;-74
2021/08/25 03:31:48;;;;;;;9.30;5.50;;;;;;;8.77;70.65;100686.95;137528;1202;109646;-73
2021/08/25 03:34:54;;;;;;;10.60;4.90;;;;;;;8.76;70.78;100686.46;137500;1195;98132;-73
2021/08/25 03:37:59;;;;;;;9.20;4.40;;;;;;;8.75;70.88;100684.77;137442;1201;112156;-72
2021/08/25 03:41:05;;;;;;;8.70;5.00;;;;;;;8.82;70.87;100684.21;137443;1201;99013;-72
2021/08/25 03:44:10;;;;;;;9.70;4.90;;;;;;;8.90;71.18;100681.16;137446;1201;97708;-72
2021/08/25 03:47:16;;;;;;;8.30;4.90;;;;;;;8.96;71.31;100678.71;137436;1201;108541;-73
2021/08/25 03:50:22;;;;;;;10.00;5.40;;;;;;;8.95;71.45;100673.70;137466;1201;97741;-73
2021/08/25 03:53:27;;;;;;;10.90;5.30;;;;;;;8.97;71.43;100670.88;137398;1201;110700;-74
2021/08/25 03:56:33;;;;;;;11.80;5.30;;;;;;;8.98;71.53;100668.27;137530;1201;97696;-74
2021/08/25 03:59:38;;;;;;;7.60;4.50;;;;;;;8.94;72.10;100665.92;137402;1201;98178;-74
2021/08/25 04:02:44;;;;;;;9.50;5.00;;;;;;;8.96;71.88;100665.41;137399;1201;116989;-73
2021/08/25 04:05:49;;;;;;;9.80;4.90;;;;;;;9.00;72.07;100669.17;137426;1196;98641;-72
2021/08/25 04:08:54;;;;;;;10.40;4.80;;;;;;;9.10;72.08;100667.06;137475;1201;112093;-73
2021/08/25 04:12:00;;;;;;;9.40;4.70;;;;;;;9.19;71.85;100668.90;137425;1196;99020;-73
2021/08/25 04:15:08;;;;;;;11.00;4.80;;;;;;;9.29;71.96;100674.63;137444;1201;97660;-73
2021/08/25 04:18:13;;;;;;;8.70;4.80;;;;;;;9.35;71.94;100671.76;137420;1200;108546;-73
2021/08/25 04:21:19;;;;;;;9.80;4.90;;;;;;;9.43;71.93;100670.54;137437;1201;99009;-73
2021/08/25 04:24:24;;;;;;;8.40;4.40;;;;;;;9.47;71.89;100671.63;137414;1201;112631;-73
2021/08/25 04:27:30;;;;;;;9.30;4.40;;;;;;;9.48;72.20;100674.06;137361;1201;97690;-72
2021/08/25 04:30:36;;;;;;;8.90;4.80;;;;;;;9.50;72.35;100673.13;137400;1201;97692;-73
2021/08/25 04:33:41;;;;;;;11.10;5.00;;;;;;;9.56;72.34;100672.58;137304;1202;106747;-73
2021/08/25 04:36:47;;;;;;;7.90;4.90;;;;;;;9.68;72.43;100671.38;137342;1202;97787;-79
2021/08/25 04:39:52;;;;;;;8.80;4.80;;;;;;;9.85;72.38;100669.64;137475;1201;112155;-74
2021/08/25 04:42:58;;;;;;;8.30;5.00;;;;;;;10.07;72.42;100666.23;137489;1201;97698;-74
2021/08/25 04:46:04;;;;;;;10.20;4.70;;;;;;;10.31;72.39;100662.69;137455;1201;98987;-73
2021/08/25 04:49:09;;;;;;;7.40;4.40;;;;;;;10.51;72.24;100665.42;137451;1201;109086;-73
2021/08/25 04:52:15;;;;;;;7.90;4.60;;;;;;;10.72;72.27;100660.81;137495;1201;97688;-73
2021/08/25 04:55:20;;;;;;;8.80;4.70;;;;;;;10.88;72.02;100657.96;137397;1201;112012;-75
2021/08/25 04:58:26;;;;;;;8.40;5.10;;;;;;;10.90;72.12;100661.14;137417;1201;97842;-74
2021/08/25 05:01:31;;;;;;;8.20;4.60;;;;;;;11.05;72.27;100658.08;137428;1201;97714;-74
2021/08/25 05:04:37;;;;;;;7.90;4.50;;;;;;;11.19;72.10;100657.12;137473;1201;107821;-74
2021/08/25 05:07:42;;;;;;;7.80;5.00;;;;;;;11.23;72.23;100656.23;137517;1201;98064;-74
2021/08/25 05:10:49;;;;;;;8.90;4.40;;;;;;;11.34;72.11;100657.25;137414;1201;112216;-74
2021/08/25 05:13:55;;;;;;;8.00;4.30;;;;;;;11.45;72.22;100655.34;137497;1201;97657;-74
2021/08/25 05:17:01;;;;;;;9.30;5.20;;;;;;;11.49;71.98;100655.25;137436;1201;97680;-74
2021/08/25 05:20:09;;;;;;;8.40;4.70;;;;;;;11.60;72.13;100656.54;137453;1193;108455;-73
2021/08/25 05:23:14;;;;;;;8.20;4.60;;;;;;;11.75;72.13;100653.63;137429;1201;97683;-73
2021/08/25 05:26:20;;;;;;;9.60;4.80;;;;;;;11.88;72.11;100646.66;137391;1201;112190;-72
2021/08/25 05:29:26;;;;;;;8.20;4.40;;;;;;;11.99;71.98;100643.61;137385;1201;98990;-73
2021/08/25 05:32:31;;;;;;;8.90;4.70;;;;;;;12.03;71.71;100643.48;137369;1201;97658;-73
2021/08/25 05:35:36;;;;;;;8.50;4.90;;;;;;;11.95;71.78;100635.11;137386;1201;108653;-73
2021/08/25 05:38:42;;;;;;;6.30;4.00;;;;;;;11.86;71.76;100632.66;137393;1201;97833;-73
2021/08/25 05:41:47;;;;;;;6.40;4.10;;;;;;;11.77;72.10;100633.30;137327;1195;112365;-73
2021/08/25 05:44:53;;;;;;;9.80;4.70;;;;;;;11.79;72.21;100637.38;137381;1201;98612;-73
2021/08/25 05:47:59;;;;;;;7.70;4.90;;;;;;;11.83;72.19;100641.79;137394;1201;97781;-76
2021/08/25 05:51:04;;;;;;;7.10;4.40;;;;;;;11.85;72.06;100638.80;137335;1201;108498;-73
2021/08/25 05:54:13;;;;;;;7.30;4.30;;;;;;;11.76;72.04;100632.83;137304;1201;98991;-73
2021/08/25 05:57:18;;;;;;;7.90;4.30;;;;;;;11.74;72.21;100633.75;137309;1201;112175;-73
2021/08/25 06:00:24;;;;;;;8.30;4.90;;;;;;;11.70;72.26;100628.86;137380;1201;97776;-73
2021/08/25 06:03:29;;;;;;;10.10;4.70;;;;;;;11.58;72.29;100629.77;137403;1201;97719;-74
2021/08/25 06:06:35;;;;;;;7.20;3.80;;;;;;;11.51;72.15;100634.65;137390;1193;108175;-73
2021/08/25 06:09:40;;;;;;;7.50;4.20;;;;;;;11.50;72.28;100637.36;137428;1201;97764;-72
2021/08/25 06:12:46;;;;;;;7.00;4.40;;;;;;;11.51;72.34;100634.11;137487;1197;112304;-73
2021/08/25 06:15:51;;;;;;;7.80;4.20;;;;;;;11.63;72.51;100629.68;137378;1201;98637;-73
2021/08/25 06:18:56;;;;;;;8.50;4.20;;;;;;;11.74;72.61;100629.30;137343;1201;97757;-73
2021/08/25 06:22:02;;;;;;;7.00;4.20;;;;;;;11.81;72.50;100625.05;137314;1201;108518;-73
2021/08/25 06:25:10;;;;;;;7.60;4.50;;;;;;;11.89;72.56;100627.17;137357;1201;99027;-73
2021/08/25 06:28:16;;;;;;;6.90;4.10;;;;;;;12.00;72.86;100627.29;137385;1201;111596;-73
2021/08/25 06:31:21;;;;;;;9.80;4.60;;;;;;;12.18;72.81;100623.39;137409;1201;97606;-73
2021/08/25 06:34:26;;;;;;;11.80;4.20;;;;;;;12.30;72.59;100620.20;137421;1201;98998;-73
2021/08/25 06:37:32;;;;;;;7.10;4.20;;;;;;;12.43;72.60;100619.05;137295;1201;108527;-72
2021/08/25 06:40:37;;;;;;;7.70;5.00;;;;;;;12.57;72.50;100621.37;137320;1201;97781;-73
2021/08/25 06:43:43;;;;;;;9.20;4.50;;;;;;;12.71;72.21;100621.78;137355;1201;112078;-73
2021/08/25 06:46:48;;;;;;;6.80;4.20;;;;;;;12.78;72.50;100620.14;137318;1201;99091;-73
2021/08/25 06:49:54;;;;;;;7.50;4.40;;;;;;;12.90;72.29;100614.20;137336;1201;98602;-74
2021/08/25 06:52:59;;;;;;;7.10;4.00;;;;;;;13.00;72.37;100613.55;137347;1201;108618;-73
2021/08/25 06:56:05;;;;;;;7.90;4.00;;;;;;;13.06;72.16;100610.33;137320;1201;98603;-73
2021/08/25 06:59:10;;;;;;;9.00;4.00;;;;;;;13.16;72.35;100608.89;137362;1201;113156;-73
2021/08/25 07:02:15;;;;;;;7.30;4.10;;;;;;;13.37;72.22;100605.28;137370;1201;98598;-73
2021/08/25 07:05:21;;;;;;;7.00;4.40;;;;;;;13.54;71.82;100594.68;137376;1201;99145;-73
2021/08/25 07:08:26;;;;;;;7.60;4.60;;;;;;;13.70;71.86;100590.77;137399;1193;108423;-72
2021/08/25 07:11:32;;;;;;;8.20;4.90;;;;;;;13.85;71.77;100591.02;137395;1201;98596;-73
2021/08/25 07:14:37;;;;;;;8.80;4.70;;;;;;;13.98;71.62;100583.94;137326;1201;111950;-72
2021/08/25 07:17:43;;;;;;;7.50;4.70;;;;;;;14.09;71.56;100581.98;137377;1201;97786;-73
2021/08/25 07:20:48;;;;;;;6.80;4.50;;;;;;;14.17;71.03;100573.44;137321;1195;99036;-74
2021/08/25 07:23:53;;;;;;;9.20;4.50;;;;;;;14.07;70.16;100572.17;137300;1200;109081;-74
2021/08/25 07:26:59;;;;;;;8.30;4.80;;;;;;;13.98;70.80;100568.17;137382;1195;97779;-74
2021/08/25 07:30:05;;;;;;;8.90;4.40;;;;;;;14.05;71.24;100566.34;137334;1201;112285;-73
2021/08/25 07:33:14;;;;;;;8.50;4.50;;;;;;;14.21;70.99;100564.77;137367;1201;97790;-73
2021/08/25 07:36:20;;;;;;;9.10;5.00;;;;;;;14.32;70.83;100561.59;137369;1201;99167;-73
2021/08/25 07:39:25;;;;;;;9.10;4.60;;;;;;;14.37;70.33;100559.21;137344;1194;108604;-73
2021/08/25 07:42:31;;;;;;;8.70;5.00;;;;;;;14.40;70.81;100557.10;137402;1201;97781;-73
2021/08/25 07:45:37;;;;;;;7.70;4.30;;;;;;;14.51;70.66;100554.23;137381;1201;112412;-73
2021/08/25 07:48:42;;;;;;;8.20;4.20;;;;;;;14.61;70.15;100555.92;137353;1201;97757;-72
2021/08/25 07:51:48;;;;;;;7.20;4.00;;;;;;;14.69;70.50;100550.85;137356;1201;98612;-72
2021/08/25 07:54:53;;;;;;;8.10;4.50;;;;;;;14.72;69.25;100551.08;137451;1195;108965;-73
2021/08/25 07:57:59;;;;;;;6.00;4.00;;;;;;;14.73;69.33;100551.27;137327;1194;99093;-72
2021/08/25 08:01:04;;;;;;;6.90;3.90;;;;;;;14.78;69.88;100546.79;137348;1201;112184;-73
2021/08/25 08:04:10;;;;;;;7.70;4.80;;;;;;;14.87;69.43;100540.62;137389;1201;97781;-73
2021/08/25 08:07:15;;;;;;;7.90;4.40;;;;;;;14.94;69.64;100535.31;137380;1201;98573;-73
2021/08/25 08:10:20;;;;;;;7.50;4.40;;;;;;;15.08;69.53;100530.10;137340;1193;108661;-72
2021/08/25 08:13:26;;;;;;;7.00;4.20;;;;;;;15.06;67.27;100533.74;137362;1201;97710;-73
2021/08/25 08:16:34;;;;;;;6.50;3.80;;;;;;;14.98;68.16;100530.14;137347;1201;110910;-72
2021/08/25 08:19:39;;;;;;;6.40;4.40;;;;;;;15.07;66.83;100532.81;137383;1201;97685;-72
2021/08/25 08:22:45;;;;;;;6.50;3.30;;;;;;;15.10;67.61;100521.80;137363;1201;97679;-73
2021/08/25 08:25:50;;;;;;;6.70;4.00;;;;;;;15.25;67.90;100515.93;137296;1201;108876;-71
2021/08/25 08:28:56;;;;;;;7.30;4.50;;;;;;;15.29;66.54;100518.77;137388;1201;97690;-72
2021/08/25 08:32:01;;;;;;;7.00;4.30;;;;;;;15.24;67.44;100514.50;137372;1201;112053;-72
2021/08/25 08:35:08;;;;;;;6.60;4.10;;;;;;;15.19;67.66;100508.14;137342;1195;98538;-73
2021/08/25 08:38:14;;;;;;;6.50;3.90;;;;;;;15.22;67.91;100510.27;137457;1201;97667;-71
2021/08/25 08:41:19;;;;;;;6.90;4.20;;;;;;;15.27;67.59;100501.73;137374;1201;108731;-73
2021/08/25 08:44:27;;;;;;;5.70;4.30;;;;;;;15.48;68.02;100497.40;137384;1201;97682;-72
2021/08/25 08:47:33;;;;;;;8.10;4.20;;;;;;;15.90;67.96;100491.36;137385;1201;112063;-72
2021/08/25 08:50:39;;;;;;;9.40;5.00;;;;;;;16.33;67.50;100485.96;137403;1196;97746;-72
2021/08/25 08:53:45;;;;;;;7.40;5.10;;;;;;;16.57;65.31;100488.79;137484;1201;97708;-72
2021/08/25 08:56:52;;;;;;;9.30;5.70;;;;;;;16.56;66.52;100484.77;137400;1201;107884;-72
2021/08/25 08:59:59;;;;;;;8.70;4.80;;;;;;;16.63;65.96;100481.04;137439;1201;97680;-73
2021/08/25 09:03:17;;;;;;;7.40;5.20;;;;;;;16.56;64.84;100476.89;137379;1201;112111;-73
2021/08/25 09:06:42;;;;;;;6.50;4.90;;;;;;;16.56;66.00;100477.17;137465;1201;97788;-73
2021/08/25 09:09:55;;;;;;;7.80;5.50;;;;;;;16.78;66.22;100476.39;137419;1201;97689;-73
2021/08/25 09:13:02;;;;;;;6.10;4.90;;;;;;;17.16;65.90;100467.15;137390;1201;108518;-72
2021/08/25 09:16:09;;;;;;;5.50;4.40;;;;;;;17.49;64.80;100459.51;137460;1193;97762;-71
2021/08/25 09:19:17;;;;;;;6.10;4.20;;;;;;;17.52;62.48;100461.41;137455;1194;112088;-72
2021/08/25 09:22:22;;;;;;;6.60;4.70;;;;;;;17.27;59.89;100455.23;137444;1201;97678;-71
2021/08/25 09:25:35;;;;;;;10.60;9.00;;;;;;;16.98;61.40;100453.51;137416;1201;98666;-71
2021/08/25 09:28:40;;;;;;;7.50;5.80;;;;;;;16.77;62.45;100452.74;137471;1201;108520;-72
2021/08/25 09:31:47;;;;;;;7.00;4.90;;;;;;;16.60;62.15;100455.02;137402;1201;97759;-72
2021/08/25 09:34:57;;;;;;;9.30;4.80;;;;;;;16.44;62.24;100446.52;137422;1201;112215;-72
2021/08/25 09:38:05;;;;;;;6.30;4.30;;;;;;;16.35;62.18;100446.90;137441;1201;98606;-73
2021/08/25 09:41:12;;;;;;;7.30;4.80;;;;;;;16.27;62.38;100442.88;137401;1193;98599;-72
2021/08/25 09:44:19;;;;;;;7.80;5.70;;;;;;;16.34;61.98;100439.81;137416;1193;108544;-72
2021/08/25 09:47:43;;;;;;;8.00;5.40;;;;;;;16.39;61.79;100437.80;137394;1201;97770;-73
2021/08/25 09:50:58;;;;;;;7.00;5.50;;;;;;;16.47;62.41;100435.42;137415;1196;112058;-72
2021/08/25 09:54:10;;;;;;;6.60;4.80;;;;;;;16.58;61.35;100429.98;137449;1201;97764;-72
2021/08/25 09:57:34;;;;;;;6.70;4.00;;;;;;;16.67;61.84;100423.27;137446;1193;98573;-72
2021/08/25 10:00:40;;;;;;;7.20;4.90;;;;;;;16.83;61.27;100423.81;137411;1201;108366;-71
2021/08/25 10:03:46;;;;;;;6.70;4.10;;;;;;;16.91;60.25;100421.38;137409;1201;97704;-72
2021/08/25 10:06:52;;;;;;;6.10;3.90;;;;;;;16.97;60.60;100419.20;137407;1201;112312;-72
2021/08/25 10:09:57;;;;;;;7.80;3.80;;;;;;;17.15;60.04;100414.83;137402;1201;97777;-73
2021/08/25 10:13:04;;;;;;;8.30;3.60;;;;;;;17.32;59.87;100408.18;137471;1201;97661;-72
2021/08/25 10:16:14;;;;;;;4.70;3.10;;;;;;;17.44;58.89;100400.66;137372;1201;108651;-74
2021/08/25 10:19:34;;;;;;;4.60;3.10;;;;;;;17.50;58.60;100400.25;137436;1201;97692;-72
2021/08/25 10:22:49;;;;;;;4.60;3.00;;;;;;;17.61;59.39;100391.79;137368;1201;112201;-73
2021/08/25 10:26:11;;;;;;;5.60;3.10;;;;;;;17.64;58.14;100385.83;137610;1201;98574;-73
2021/08/25 10:29:15;;;;;;;;;;;;;;;17.57;58.86;100379.55;137467;1201;98596;-72
2021/08/25 10:32:21;;;;;;;4.10;2.60;;;;;;;17.57;59.14;100370.71;137396;1201;108595;-71
2021/08/25 10:35:31;;;;;;;4.90;3.00;;;;;;;17.59;57.69;100368.27;137381;1201;97766;-72
2021/08/25 10:38:43;;;;;;;5.00;3.30;;;;;;;17.52;57.30;100363.41;137379;1201;112145;-73
2021/08/25 10:41:48;;;;;;;5.10;3.40;;;;;;;17.45;57.29;100356.88;137429;1201;97698;-73
2021/08/25 10:44:53;;;;;;;5.20;2.90;;;;;;;17.46;57.61;100353.61;137427;1200;97632;-73
2021/08/25 10:48:02;;;;;;;5.00;2.90;;;;;;;17.53;57.10;100349.05;137360;1200;108480;-71
2021/08/25 10:51:32;;;;;;;4.20;2.80;;;;;;;17.69;58.12;100341.82;137456;1201;97757;-74
2021/08/25 10:54:37;;;;;;;4.60;3.40;;;;;;;17.95;58.30;100332.48;137405;1201;112292;-72
2021/08/25 10:57:45;;;;;;;4.30;3.30;;;;;;;18.29;58.05;100328.23;137425;1201;97777;-72
2021/08/25 11:00:50;;;;;;;5.00;2.90;;;;;;;18.50;57.15;100319.84;137407;1201;99090;-72
2021/08/25 11:03:56;;;;;;;3.90;2.50;;;;;;;18.63;56.94;100323.61;137364;1201;109124;-72
2021/08/25 11:07:04;;;;;;;4.80;2.70;;;;;;;18.78;56.58;100318.41;137388;1201;97694;-73
2021/08/25 11:10:10;;;;;;;4.30;2.20;;;;;;;18.73;50.88;100322.18;137551;1195;111970;-73
2021/08/25 11:13:36;;;;;;;4.60;2.10;;;;;;;18.47;53.40;100313.67;137422;1201;97786;-72
2021/08/25 11:16:41;;;;;;;3.10;1.90;;;;;;;18.33;54.67;100306.20;137566;1201;98663;-72
2021/08/25 11:19:48;;;;;;;2.60;1.80;;;;;;;18.43;55.56;100301.58;137358;1201;108488;-72
2021/08/25 11:22:56;;;;;;;4.60;2.00;;;;;;;18.47;55.79;100297.66;137390;1201;99115;-72
2021/08/25 11:26:03;;;;;;;3.40;1.70;;;;;;;18.63;55.55;100297.58;137362;1200;112490;-71
2021/08/25 11:29:17;;;;;;;2.80;1.60;;;;;;;18.53;53.85;100293.15;137438;1201;98574;-72
2021/08/25 11:32:23;;;;;;;4.40;1.80;;;;;;;18.36;54.62;100292.58;137389;1196;98991;-72
2021/08/25 11:35:31;;;;;;;2.50;1.50;;;;;;;18.21;53.69;100292.41;137334;1201;108773;-72
2021/08/25 11:38:37;;;;;;;2.40;1.60;;;;;;;18.13;54.00;100286.30;137411;1201;97667;-75
2021/08/25 11:41:47;;;;;;;2.20;1.50;;;;;;;18.16;54.18;100279.25;137379;1196;111686;-71
2021/08/25 11:44:53;;;;;;;2.40;1.40;;;;;;;18.17;54.73;100280.05;137421;1201;99004;-72
2021/08/25 11:48:00;;;;;;;3.40;1.70;;;;;;;18.23;54.34;100274.74;137371;1201;98601;-71
2021/08/25 11:51:05;;;;;;;2.90;1.60;;;;;;;18.26;54.89;100270.42;137454;1201;108539;-72
2021/08/25 11:54:11;;;;;;;2.80;1.50;;;;;;;18.30;54.45;100267.29;137387;1201;98987;-71
2021/08/25 11:57:17;;;;;;;3.70;1.90;;;;;;;18.21;55.30;100262.73;137356;1201;112236;-72
2021/08/25 12:00:24;;;;;;;5.70;2.50;;;;;;;18.17;54.97;100257.10;137366;1201;97687;-71
2021/08/25 12:03:43;;;;;;;3.30;2.20;;;;;;;18.07;55.51;100256.69;137325;1194;97766;-71
2021/08/25 12:06:49;;;;;;;2.30;1.60;;;;;;;17.98;54.51;100258.16;137467;1201;108477;-72
2021/08/25 12:09:54;;;;;;;2.60;1.90;;;;;;;17.94;55.46;100252.95;137395;1200;98121;-73
2021/08/25 12:13:00;;;;;;;9.00;3.30;;;;;;;18.22;55.65;100248.94;137332;1201;110738;-73
2021/08/25 12:16:10;;;;;;;5.50;2.80;;;;;;;18.46;54.90;100241.44;137381;1201;97742;-73
2021/08/25 12:19:22;;;;;;;4.30;2.50;;;;;;;18.63;55.46;100234.17;137365;1201;99013;-71
2021/08/25 12:22:30;;;;;;;5.10;2.90;;;;;;;18.89;55.31;100225.95;137368;1200;108880;-71
2021/08/25 12:25:42;;;;;;;6.80;3.10;;;;;;;19.10;55.14;100221.11;137381;1201;97753;-71
2021/08/25 12:28:47;;;;;;;4.00;2.70;;;;;;;19.19;55.13;100218.58;137342;1201;112150;-71
2021/08/25 12:31:59;;;;;;;3.00;2.10;;;;;;;19.26;54.97;100215.48;137381;1201;97736;-72
2021/08/25 12:35:03;;;;;;;;;;;;;;;19.39;55.35;100212.77;137503;1201;98015;-72
2021/08/25 12:38:09;;;;;;;2.40;1.70;;;;;;;19.59;55.30;100202.88;137417;1201;108598;-71
2021/08/25 12:41:14;;;;;;;2.70;1.60;;;;;;;19.73;55.32;100196.98;137356;1201;98027;-72
2021/08/25 12:44:21;;;;;;;2.20;1.50;;;;;;;19.75;55.30;100190.40;137345;1201;112161;-72
2021/08/25 12:47:26;;;;;;;3.10;1.70;;;;;;;19.73;54.92;100185.86;137360;1202;97779;-71
2021/08/25 12:50:31;;;;;;;4.20;1.70;;;;;;;19.71;55.02;100185.19;137344;1201;98658;-72
2021/08/25 12:53:37;;;;;;;3.30;1.80;;;;;;;19.65;54.87;100186.95;137388;1201;108644;-71
2021/08/25 12:56:42;;;;;;;3.50;1.80;;;;;;;19.55;55.00;100185.48;137323;1201;97770;-72
2021/08/25 12:59:48;;;;;;;3.20;2.20;;;;;;;19.51;54.80;100183.77;137284;1201;112092;-70
2021/08/25 13:02:53;;;;;;;3.40;2.30;;;;;;;19.43;54.77;100177.66;137440;1201;97725;-71
2021/08/25 13:05:59;;;;;;;3.00;1.80;;;;;;;19.37;54.90;100177.55;137343;1201;98596;-71
2021/08/25 13:09:05;;;;;;;3.20;1.80;;;;;;;19.31;54.92;100171.38;137348;1201;108668;-71
2021/08/25 13:12:11;;;;;;;3.80;1.90;;;;;;;19.26;55.08;100169.84;137414;1201;97779;-72
2021/08/25 13:15:16;;;;;;;2.40;1.60;;;;;;;19.29;54.97;100164.13;137335;1201;112562;-71
2021/08/25 13:18:23;;;;;;;3.80;2.00;;;;;;;19.32;54.53;100163.13;137290;1201;97701;-71
2021/08/25 13:21:28;;;;;;;3.40;1.70;;;;;;;19.31;54.69;100160.67;137399;1201;97701;-71
2021/08/25 13:24:34;;;;;;;3.70;1.90;;;;;;;19.36;54.97;100154.91;137335;1201;108556;-72
2021/08/25 13:27:39;;;;;;;2.90;1.80;;;;;;;19.42;54.76;100151.11;137339;1202;97772;-71
2021/08/25 13:30:44;;;;;;;2.80;1.60;;;;;;;19.45;54.86;100148.84;137485;1194;112152;-71
2021/08/25 13:33:50;;;;;;;2.50;1.70;;;;;;;19.38;54.52;100146.50;137328;1202;97736;-73
2021/08/25 13:36:55;;;;;;;3.00;1.90;;;;;;;19.31;54.75;100142.10;137329;1201;97706;-73
2021/08/25 13:40:01;;;;;;;2.40;1.70;;;;;;;19.32;54.54;100136.66;137337;1201;107320;-73
2021/08/25 13:43:06;;;;;;;2.20;1.50;;;;;;;19.30;54.51;100133.33;137348;1201;99029;-73
2021/08/25 13:46:12;;;;;;;2.10;1.50;;;;;;;19.28;54.83;100132.59;137341;1201;112648;-74
2021/08/25 13:49:17;;;;;;;3.00;1.50;;;;;;;19.27;54.57;100128.14;137311;1201;99003;-71
2021/08/25 13:52:23;;;;;;;2.70;1.50;;;;;;;19.23;54.61;100121.86;137390;1201;99033;-72
2021/08/25 13:55:28;;;;;;;10.80;7.90;;;;;;;19.25;54.58;100115.71;137319;1201;108479;-72
2021/08/25 13:58:33;;;;;;;222.30;137.10;;;;;;;19.22;54.39;100112.64;137377;1195;97775;-73
2021/08/25 14:01:39;;;;;;;344.40;237.10;;;;;;;19.16;54.73;100108.70;137338;1194;111829;-72
2021/08/25 14:04:44;;;;;;;226.00;125.20;;;;;;;19.11;54.86;100105.56;137353;1195;97689;-72
2021/08/25 14:07:50;;;;;;;78.00;49.10;;;;;;;19.14;54.79;100098.89;137397;1194;97707;-77
2021/08/25 14:10:55;;;;;;;63.60;43.60;;;;;;;19.15;54.27;100087.73;137518;1201;108507;-69
2021/08/25 14:14:01;;;;;;;48.00;35.10;;;;;;;19.16;54.47;100082.15;137340;1201;97690;-79